Time;durP1;ratioP1;P1;durP2;ratioP2;P2;SDS_P1;SDS_P2;PMS_P1;PMS_P2;Temp;Humidity;BMP_temperature;BMP_pressure;BME280_temperature;BME280_humidity;BME280_pressure;Samples;Min_cycle;Max_cycle;Signal;HPM_P1;HPM_P2
2023/09/06 00:01:18;;;;;;;1999.90;999.90;;;;;;;;;;5082641;28;20393;-87
2023/09/06 00:03:44;;;;;;;1999.90;999.90;;;;;;;;;;5084099;28;20179;-87
2023/09/06 00:06:12;;;;;;;1999.90;999.90;;;;;;;;;;5080369;28;20049;-87
2023/09/06 00:08:39;;;;;;;1999.90;999.90;;;;;;;;;;5078865;28;20047;-87
2023/09/06 00:11:05;;;;;;;1999.90;999.90;;;;;;;;;;5083468;28;20056;-87
2023/09/06 00:13:33;;;;;;;1999.90;999.90;;;;;;;;;;5083782;28;20492;-87
2023/09/06 00:16:00;;;;;;;1999.90;999.90;;;;;;;;;;5082187;28;20074;-87
2023/09/06 00:18:27;;;;;;;1999.90;999.90;;;;;;;;;;5084957;28;20040;-88
2023/09/06 00:20:54;;;;;;;1999.90;999.90;;;;;;;;;;5089062;28;20059;-87
2023/09/06 00:23:22;;;;;;;1999.90;999.90;;;;;;;;;;5084449;28;20048;-86
2023/09/06 00:25:49;;;;;;;1999.90;999.90;;;;;;;;;;5092985;28;20377;-86
2023/09/06 00:28:15;;;;;;;1999.90;999.90;;;;;;;;;;5083746;28;20441;-87
2023/09/06 00:30:44;;;;;;;1999.90;999.90;;;;;;;;;;5079005;28;20048;-88
2023/09/06 00:33:10;;;;;;;1999.90;999.90;;;;;;;;;;5085061;28;20045;-88
2023/09/06 00:35:38;;;;;;;1999.90;999.90;;;;;;;;;;5081869;28;20055;-87
2023/09/06 00:38:06;;;;;;;1999.90;999.90;;;;;;;;;;5089426;28;20051;-87
2023/09/06 00:40:36;;;;;;;1999.90;999.90;;;;;;;;;;5084569;28;20437;-86
2023/09/06 00:43:04;;;;;;;1999.90;999.90;;;;;;;;;;5085913;28;20092;-87
2023/09/06 00:45:33;;;;;;;1999.90;999.90;;;;;;;;;;5084325;28;20049;-86
2023/09/06 00:48:01;;;;;;;1999.90;999.90;;;;;;;;;;5080052;28;20512;-87
2023/09/06 00:50:27;;;;;;;1999.90;999.90;;;;;;;;;;5082522;28;20053;-88
2023/09/06 00:52:54;;;;;;;1999.90;999.90;;;;;;;;;;5081577;28;20405;-87
2023/09/06 00:55:21;;;;;;;1999.90;999.90;;;;;;;;;;5079621;28;20044;-87
2023/09/06 00:57:50;;;;;;;1999.90;999.90;;;;;;;;;;5086224;28;20044;-88
2023/09/06 01:00:17;;;;;;;1999.90;999.90;;;;;;;;;;5086775;28;20412;-89
2023/09/06 01:02:44;;;;;;;1999.90;999.90;;;;;;;;;;5078030;28;20554;-87
2023/09/06 01:05:11;;;;;;;1999.90;999.90;;;;;;;;;;5082282;28;20044;-88
2023/09/06 01:07:39;;;;;;;1999.90;999.90;;;;;;;;;;5077428;28;20047;-88
2023/09/06 01:10:07;;;;;;;1999.90;999.90;;;;;;;;;;5087265;28;20054;-86
2023/09/06 01:12:35;;;;;;;1999.90;999.90;;;;;;;;;;5082042;28;20055;-86
2023/09/06 01:15:04;;;;;;;1999.90;999.90;;;;;;;;;;5078181;28;20066;-87
2023/09/06 01:17:33;;;;;;;1999.90;999.90;;;;;;;;;;5082655;28;20044;-87
2023/09/06 01:20:24;;;;;;;1999.90;999.90;;;;;;;;;;5082010;28;20496;-85
2023/09/06 01:22:58;;;;;;;1999.90;999.90;;;;;;;;;;5082762;28;20472;-86
2023/09/06 01:25:26;;;;;;;1999.90;999.90;;;;;;;;;;5078831;28;20044;-86
2023/09/06 01:27:52;;;;;;;1999.90;999.90;;;;;;;;;;5084550;28;20052;-86
2023/09/06 01:30:19;;;;;;;1999.90;999.90;;;;;;;;;;5080538;28;20040;-86
2023/09/06 01:32:45;;;;;;;1999.90;999.90;;;;;;;;;;5075195;28;20049;-86
2023/09/06 01:35:12;;;;;;;1999.90;999.90;;;;;;;;;;5084854;28;20048;-87
2023/09/06 01:37:38;;;;;;;1999.90;999.90;;;;;;;;;;5082688;28;20047;-86
2023/09/06 01:40:17;;;;;;;1999.90;999.90;;;;;;;;;;5081743;28;20048;-86
2023/09/06 01:42:45;;;;;;;1999.90;999.90;;;;;;;;;;5081969;28;20532;-86
2023/09/06 01:45:14;;;;;;;1999.90;999.90;;;;;;;;;;5083742;28;20416;-86
2023/09/06 01:47:41;;;;;;;1999.90;999.90;;;;;;;;;;5080354;28;20775;-88
2023/09/06 01:50:08;;;;;;;1999.90;999.90;;;;;;;;;;5085169;28;20059;-87
2023/09/06 01:52:36;;;;;;;1999.90;999.90;;;;;;;;;;5077376;28;20077;-88
2023/09/06 01:55:04;;;;;;;1999.90;999.90;;;;;;;;;;5085983;28;20044;-86
2023/09/06 01:57:31;;;;;;;1999.90;999.90;;;;;;;;;;5077492;28;20484;-87
2023/09/06 01:59:58;;;;;;;1999.90;999.90;;;;;;;;;;5083955;28;20051;-88
2023/09/06 02:02:25;;;;;;;1999.90;999.90;;;;;;;;;;5082452;28;20047;-86
2023/09/06 02:04:51;;;;;;;1999.90;999.90;;;;;;;;;;5079395;28;20051;-87
2023/09/06 02:07:18;;;;;;;1999.90;999.90;;;;;;;;;;5079785;28;20049;-86
2023/09/06 02:09:44;;;;;;;1999.90;999.90;;;;;;;;;;5086425;28;20051;-88
2023/09/06 02:12:11;;;;;;;1999.90;999.90;;;;;;;;;;5086095;28;20484;-86
2023/09/06 02:14:38;;;;;;;1999.90;999.90;;;;;;;;;;5078901;28;20051;-86
2023/09/06 02:17:06;;;;;;;1999.90;999.90;;;;;;;;;;5075906;28;20044;-87
2023/09/06 02:19:33;;;;;;;1999.90;999.90;;;;;;;;;;5086795;28;20105;-88
2023/09/06 02:22:10;;;;;;;1999.90;999.90;;;;;;;;;;5081151;28;20047;-85
2023/09/06 02:24:37;;;;;;;1999.90;999.90;;;;;;;;;;5078271;28;20036;-87
2023/09/06 02:27:04;;;;;;;1999.90;999.90;;;;;;;;;;5075706;28;20052;-86
2023/09/06 02:29:30;;;;;;;1999.90;999.90;;;;;;;;;;5078082;28;20052;-87
2023/09/06 02:31:57;;;;;;;1999.90;999.90;;;;;;;;;;5084266;28;20062;-87
2023/09/06 02:34:24;;;;;;;1999.90;999.90;;;;;;;;;;5080851;28;20051;-86
2023/09/06 02:36:51;;;;;;;1999.90;999.90;;;;;;;;;;5082405;28;20527;-87
2023/09/06 02:39:18;;;;;;;1999.90;999.90;;;;;;;;;;5080000;28;20045;-87
2023/09/06 02:41:45;;;;;;;1999.90;999.90;;;;;;;;;;5082874;28;20055;-89
2023/09/06 02:44:12;;;;;;;1999.90;999.90;;;;;;;;;;5087370;28;20044;-86
2023/09/06 02:46:40;;;;;;;1999.90;999.90;;;;;;;;;;5076738;28;20397;-86
2023/09/06 02:49:12;;;;;;;1999.90;999.90;;;;;;;;;;5080265;28;20052;-86
2023/09/06 02:51:42;;;;;;;1999.90;999.90;;;;;;;;;;5081167;28;20052;-86
2023/09/06 02:54:09;;;;;;;1999.90;999.90;;;;;;;;;;5083625;28;20515;-88
2023/09/06 02:56:37;;;;;;;1999.90;999.90;;;;;;;;;;5083617;28;20051;-85
2023/09/06 02:59:07;;;;;;;1999.90;999.90;;;;;;;;;;5088038;28;20062;-86
2023/09/06 03:01:35;;;;;;;1999.90;999.90;;;;;;;;;;5086719;28;20419;-86
2023/09/06 03:04:06;;;;;;;1999.90;999.90;;;;;;;;;;5086860;28;20048;-89
2023/09/06 03:06:33;;;;;;;1999.90;999.90;;;;;;;;;;5082440;28;20047;-89
2023/09/06 03:09:06;;;;;;;1999.90;999.90;;;;;;;;;;5081484;28;20052;-87
2023/09/06 03:11:32;;;;;;;1999.90;999.90;;;;;;;;;;5082658;28;20048;-85
2023/09/06 03:13:59;;;;;;;1999.90;999.90;;;;;;;;;;5084095;28;20044;-85
2023/09/06 03:16:27;;;;;;;1999.90;999.90;;;;;;;;;;5088012;28;20048;-85
2023/09/06 03:18:54;;;;;;;1999.90;999.90;;;;;;;;;;5082948;28;20090;-85
2023/09/06 03:21:21;;;;;;;1999.90;999.90;;;;;;;;;;5080318;28;20070;-86
2023/09/06 03:23:49;;;;;;;1999.90;999.90;;;;;;;;;;5084180;28;20073;-85
2023/09/06 03:26:17;;;;;;;1999.90;999.90;;;;;;;;;;5083133;28;20052;-86
2023/09/06 03:28:43;;;;;;;1999.90;999.90;;;;;;;;;;5081666;28;20113;-85
2023/09/06 03:31:11;;;;;;;1999.90;999.90;;;;;;;;;;5087874;28;20060;-86
2023/09/06 03:33:39;;;;;;;1999.90;999.90;;;;;;;;;;5086225;28;20041;-85
2023/09/06 03:36:07;;;;;;;1999.90;999.90;;;;;;;;;;5083883;28;20132;-85
2023/09/06 03:38:34;;;;;;;1999.90;999.90;;;;;;;;;;5087310;28;20110;-85
2023/09/06 03:41:02;;;;;;;1999.90;999.90;;;;;;;;;;5084660;28;20048;-87
2023/09/06 03:43:32;;;;;;;1999.90;999.90;;;;;;;;;;5082634;28;20097;-86
2023/09/06 03:45:59;;;;;;;1999.90;999.90;;;;;;;;;;5084103;28;20093;-87
2023/09/06 03:48:27;;;;;;;1999.90;999.90;;;;;;;;;;5079278;28;20052;-87
2023/09/06 03:50:57;;;;;;;1999.90;999.90;;;;;;;;;;5087113;28;20044;-86
2023/09/06 03:53:25;;;;;;;1999.90;999.90;;;;;;;;;;5079525;28;20052;-86
2023/09/06 03:55:52;;;;;;;1999.90;999.90;;;;;;;;;;5087527;28;20075;-86
2023/09/06 03:58:19;;;;;;;1999.90;999.90;;;;;;;;;;5080315;28;20489;-85
2023/09/06 04:00:47;;;;;;;1999.90;999.90;;;;;;;;;;5081195;28;20457;-86
2023/09/06 04:03:14;;;;;;;1999.90;999.90;;;;;;;;;;5080951;28;20562;-85
2023/09/06 04:05:40;;;;;;;1999.90;999.90;;;;;;;;;;5080525;28;20051;-85
2023/09/06 04:08:08;;;;;;;1999.90;999.90;;;;;;;;;;5078414;28;20461;-84
2023/09/06 04:10:36;;;;;;;1999.90;999.90;;;;;;;;;;5079293;28;20052;-84
2023/09/06 04:13:03;;;;;;;1999.90;999.90;;;;;;;;;;5082507;28;20047;-85
2023/09/06 04:15:30;;;;;;;1999.90;999.90;;;;;;;;;;5089091;28;20086;-85
2023/09/06 04:17:58;;;;;;;1999.90;999.90;;;;;;;;;;5078240;28;20087;-85
2023/09/06 04:20:27;;;;;;;1999.90;999.90;;;;;;;;;;5084376;28;20040;-86
2023/09/06 04:22:54;;;;;;;1999.90;999.90;;;;;;;;;;5081359;28;20044;-84
2023/09/06 04:25:22;;;;;;;1999.90;999.90;;;;;;;;;;5077719;28;20504;-87
2023/09/06 04:27:49;;;;;;;1999.90;999.90;;;;;;;;;;5084683;28;20048;-87
2023/09/06 04:30:17;;;;;;;1999.90;999.90;;;;;;;;;;5089726;28;20044;-84
2023/09/06 04:32:45;;;;;;;1999.90;999.90;;;;;;;;;;5062864;28;20131;-85
2023/09/06 04:35:15;;;;;;;1999.90;999.90;;;;;;;;;;5076887;28;20451;-85
2023/09/06 04:37:41;;;;;;;1999.90;999.90;;;;;;;;;;5083609;28;20428;-84
2023/09/06 04:40:11;;;;;;;1999.90;999.90;;;;;;;;;;5083480;28;20055;-85
2023/09/06 04:42:39;;;;;;;1999.90;999.90;;;;;;;;;;5086708;28;20505;-87
2023/09/06 04:45:06;;;;;;;1999.90;999.90;;;;;;;;;;5083606;28;20048;-84
2023/09/06 04:47:33;;;;;;;1999.90;999.90;;;;;;;;;;5079332;28;20331;-84
2023/09/06 04:50:00;;;;;;;1999.90;999.90;;;;;;;;;;5080357;28;20049;-86
2023/09/06 04:52:41;;;;;;;1999.90;999.90;;;;;;;;;;5078613;28;20052;-85
2023/09/06 04:55:09;;;;;;;1999.90;999.90;;;;;;;;;;5081211;28;20408;-85
2023/09/06 04:57:37;;;;;;;1999.90;999.90;;;;;;;;;;5083880;28;20044;-85
2023/09/06 05:00:15;;;;;;;1999.90;999.90;;;;;;;;;;5086073;28;20390;-86
2023/09/06 05:02:43;;;;;;;1999.90;999.90;;;;;;;;;;5080433;28;20052;-85
2023/09/06 05:05:09;;;;;;;1999.90;999.90;;;;;;;;;;5079412;28;20561;-85
2023/09/06 05:07:37;;;;;;;1999.90;999.90;;;;;;;;;;5082843;28;20511;-84
2023/09/06 05:10:05;;;;;;;1999.90;999.90;;;;;;;;;;5088447;28;20437;-84
2023/09/06 05:12:31;;;;;;;1999.90;999.90;;;;;;;;;;5076382;28;20041;-84
2023/09/06 05:14:58;;;;;;;1999.90;999.90;;;;;;;;;;5076036;28;20055;-84
2023/09/06 05:17:24;;;;;;;1999.90;999.90;;;;;;;;;;5090288;28;20067;-83
2023/09/06 05:19:51;;;;;;;1999.90;999.90;;;;;;;;;;5084491;28;20049;-80
2023/09/06 05:22:23;;;;;;;1999.90;999.90;;;;;;;;;;5082644;28;20051;-81
2023/09/06 05:24:52;;;;;;;1999.90;999.90;;;;;;;;;;5081854;28;20044;-80
2023/09/06 05:27:20;;;;;;;1999.90;999.90;;;;;;;;;;5082186;28;20110;-80
2023/09/06 05:29:46;;;;;;;1999.90;999.90;;;;;;;;;;5076688;28;20054;-80
2023/09/06 05:32:17;;;;;;;1999.90;999.90;;;;;;;;;;5084813;28;20051;-80
2023/09/06 05:34:44;;;;;;;1999.90;999.90;;;;;;;;;;5078679;28;20403;-80
2023/09/06 05:37:10;;;;;;;1999.90;999.90;;;;;;;;;;5076848;28;20044;-82
2023/09/06 05:39:37;;;;;;;1999.90;999.90;;;;;;;;;;5084800;28;20049;-81
2023/09/06 05:42:05;;;;;;;1999.90;999.90;;;;;;;;;;5084179;28;20431;-80
2023/09/06 05:44:34;;;;;;;1999.90;999.90;;;;;;;;;;5081229;28;20154;-80
2023/09/06 05:47:00;;;;;;;1999.90;999.90;;;;;;;;;;5075031;28;20052;-80
2023/09/06 05:49:27;;;;;;;1999.90;999.90;;;;;;;;;;5090728;28;20046;-80
2023/09/06 05:52:00;;;;;;;1999.90;999.90;;;;;;;;;;5077656;28;20054;-80
2023/09/06 05:54:26;;;;;;;1999.90;999.90;;;;;;;;;;5080932;28;20139;-80
2023/09/06 05:56:53;;;;;;;1999.90;999.90;;;;;;;;;;5080986;28;20048;-83
2023/09/06 05:59:21;;;;;;;1999.90;999.90;;;;;;;;;;5078701;28;20058;-83
2023/09/06 06:01:48;;;;;;;1999.90;999.90;;;;;;;;;;5081821;28;20054;-80
2023/09/06 06:04:14;;;;;;;1999.90;999.90;;;;;;;;;;5083445;28;20050;-83
2023/09/06 06:06:41;;;;;;;1999.90;999.90;;;;;;;;;;5080234;28;20068;-81
2023/09/06 06:09:11;;;;;;;1999.90;999.90;;;;;;;;;;5078927;28;20121;-80
2023/09/06 06:11:37;;;;;;;1999.90;999.90;;;;;;;;;;5078327;28;20048;-81
2023/09/06 06:14:04;;;;;;;1999.90;999.90;;;;;;;;;;5078249;28;20045;-79
2023/09/06 06:16:32;;;;;;;1999.90;999.90;;;;;;;;;;5078975;28;20044;-80
2023/09/06 06:18:59;;;;;;;1999.90;999.90;;;;;;;;;;5084140;28;20048;-84
2023/09/06 06:21:31;;;;;;;1999.90;999.90;;;;;;;;;;5085107;28;20054;-81
2023/09/06 06:23:58;;;;;;;1999.90;999.90;;;;;;;;;;5080213;28;20480;-80
2023/09/06 06:26:25;;;;;;;1999.90;999.90;;;;;;;;;;5084088;28;20051;-80
2023/09/06 06:28:51;;;;;;;1999.90;999.90;;;;;;;;;;5085477;28;20049;-81
2023/09/06 06:31:18;;;;;;;1999.90;999.90;;;;;;;;;;5084121;28;20048;-79
2023/09/06 06:33:46;;;;;;;1999.90;999.90;;;;;;;;;;5083905;28;20055;-82
2023/09/06 06:36:12;;;;;;;1999.90;999.90;;;;;;;;;;5082174;28;20386;-80
2023/09/06 06:38:40;;;;;;;1999.90;999.90;;;;;;;;;;5087842;28;20040;-80
2023/09/06 06:41:06;;;;;;;1999.90;999.90;;;;;;;;;;5084819;28;20515;-80
2023/09/06 06:43:33;;;;;;;1999.90;999.90;;;;;;;;;;5086325;28;20048;-80
2023/09/06 06:46:04;;;;;;;1999.90;999.90;;;;;;;;;;5086472;28;20488;-82
2023/09/06 06:48:30;;;;;;;1999.90;999.90;;;;;;;;;;5086343;28;20048;-79
2023/09/06 06:50:58;;;;;;;1999.90;999.90;;;;;;;;;;5083272;28;20048;-79
2023/09/06 06:53:25;;;;;;;1999.90;999.90;;;;;;;;;;5081091;28;20041;-80
2023/09/06 06:55:51;;;;;;;1999.90;999.90;;;;;;;;;;5087459;28;20045;-80
2023/09/06 06:58:18;;;;;;;1999.90;999.90;;;;;;;;;;5086400;28;20044;-80
2023/09/06 07:00:44;;;;;;;1999.90;999.90;;;;;;;;;;5086500;28;20067;-81
2023/09/06 07:03:11;;;;;;;1999.90;999.90;;;;;;;;;;5086820;28;20044;-81
2023/09/06 07:05:38;;;;;;;1999.90;999.90;;;;;;;;;;5086526;28;20043;-79
2023/09/06 07:08:06;;;;;;;1999.90;999.90;;;;;;;;;;5088087;28;20048;-80
2023/09/06 07:10:33;;;;;;;1999.90;999.90;;;;;;;;;;5084626;28;20508;-81
2023/09/06 07:12:59;;;;;;;1999.90;999.90;;;;;;;;;;5091666;28;20041;-80
2023/09/06 07:15:27;;;;;;;1999.90;999.90;;;;;;;;;;5086769;28;20040;-81
2023/09/06 07:17:54;;;;;;;1999.90;999.90;;;;;;;;;;5081666;28;20495;-83
2023/09/06 07:20:20;;;;;;;1999.90;999.90;;;;;;;;;;5079075;28;20051;-79
2023/09/06 07:22:47;;;;;;;1999.90;999.90;;;;;;;;;;5081824;28;20052;-79
2023/09/06 07:25:15;;;;;;;1999.90;999.90;;;;;;;;;;5083947;28;20385;-80
2023/09/06 07:27:41;;;;;;;1999.90;999.90;;;;;;;;;;5082146;28;20068;-81
2023/09/06 07:30:09;;;;;;;1999.90;999.90;;;;;;;;;;5082959;28;20166;-80
2023/09/06 07:32:35;;;;;;;1999.90;999.90;;;;;;;;;;5085604;28;20453;-81
2023/09/06 07:35:02;;;;;;;1999.90;999.90;;;;;;;;;;5083816;28;20048;-81
2023/09/06 07:37:29;;;;;;;1999.90;999.90;;;;;;;;;;5077518;28;20083;-82
2023/09/06 07:39:59;;;;;;;1999.90;999.90;;;;;;;;;;5086389;28;20036;-79
2023/09/06 07:42:27;;;;;;;1999.90;999.90;;;;;;;;;;5078924;28;20051;-79
2023/09/06 07:44:53;;;;;;;1999.90;999.90;;;;;;;;;;5082512;28;20040;-81
2023/09/06 07:47:20;;;;;;;1999.90;999.90;;;;;;;;;;5080443;28;20409;-82
2023/09/06 07:49:46;;;;;;;1999.90;999.90;;;;;;;;;;5079721;28;20058;-81
2023/09/06 07:52:13;;;;;;;1999.90;999.90;;;;;;;;;;5082993;28;20052;-80
2023/09/06 07:54:40;;;;;;;1999.90;999.90;;;;;;;;;;5080578;28;20080;-82
2023/09/06 07:57:07;;;;;;;1999.90;999.90;;;;;;;;;;5082600;28;20136;-82
2023/09/06 07:59:35;;;;;;;1999.90;999.90;;;;;;;;;;5083361;28;20055;-81
2023/09/06 08:02:01;;;;;;;1999.90;999.90;;;;;;;;;;5084709;28;20051;-84
2023/09/06 08:04:28;;;;;;;1999.90;999.90;;;;;;;;;;5086395;28;20052;-82
2023/09/06 08:06:56;;;;;;;1999.90;999.90;;;;;;;;;;5076732;28;20040;-81
2023/09/06 08:09:22;;;;;;;1999.90;999.90;;;;;;;;;;5086952;28;20040;-81
2023/09/06 08:11:49;;;;;;;1999.90;999.90;;;;;;;;;;5077926;28;20048;-81
2023/09/06 08:14:15;;;;;;;1999.90;999.90;;;;;;;;;;5085676;28;20044;-82
2023/09/06 08:16:43;;;;;;;1999.90;999.90;;;;;;;;;;5082680;28;20055;-81
2023/09/06 08:19:10;;;;;;;1999.90;999.90;;;;;;;;;;5082447;28;20144;-81
2023/09/06 08:21:37;;;;;;;1999.90;999.90;;;;;;;;;;5083615;28;20044;-80
2023/09/06 08:24:04;;;;;;;1999.90;999.90;;;;;;;;;;5078528;28;20420;-79
2023/09/06 08:26:31;;;;;;;1999.90;999.90;;;;;;;;;;5083434;28;20044;-81
2023/09/06 08:28:57;;;;;;;1999.90;999.90;;;;;;;;;;5083103;28;20048;-81
2023/09/06 08:31:23;;;;;;;1999.90;999.90;;;;;;;;;;5082210;28;20041;-83
2023/09/06 08:33:51;;;;;;;1999.90;999.90;;;;;;;;;;5077961;28;20044;-81
2023/09/06 08:36:18;;;;;;;1999.90;999.90;;;;;;;;;;5081079;28;20059;-81
2023/09/06 08:38:44;;;;;;;1999.90;999.90;;;;;;;;;;5081155;28;20048;-81
2023/09/06 08:41:11;;;;;;;1999.90;999.90;;;;;;;;;;5080178;28;20049;-82
2023/09/06 08:43:41;;;;;;;1999.90;999.90;;;;;;;;;;5081623;28;20051;-81
2023/09/06 08:46:13;;;;;;;1999.90;999.90;;;;;;;;;;5086379;28;20048;-81
2023/09/06 08:48:42;;;;;;;1999.90;999.90;;;;;;;;;;5088936;28;20059;-82
2023/09/06 08:51:22;;;;;;;1999.90;999.90;;;;;;;;;;5077639;28;20054;-81
2023/09/06 08:53:49;;;;;;;1999.90;999.90;;;;;;;;;;5077068;28;20048;-82
2023/09/06 08:56:16;;;;;;;1999.90;999.90;;;;;;;;;;5076696;28;20485;-83
2023/09/06 08:58:43;;;;;;;1999.90;999.90;;;;;;;;;;5083005;28;20040;-81
2023/09/06 09:01:09;;;;;;;1999.90;999.90;;;;;;;;;;5087625;28;20044;-80
2023/09/06 09:03:36;;;;;;;1999.90;999.90;;;;;;;;;;5085539;28;20048;-81
2023/09/06 09:06:06;;;;;;;1999.90;999.90;;;;;;;;;;5082937;28;20141;-81
2023/09/06 09:08:34;;;;;;;1999.90;999.90;;;;;;;;;;5084236;28;20048;-81
2023/09/06 09:11:11;;;;;;;1999.90;999.90;;;;;;;;;;5087008;28;20454;-81
2023/09/06 09:13:38;;;;;;;1999.90;999.90;;;;;;;;;;5085906;28;20420;-81
2023/09/06 09:16:09;;;;;;;1999.90;999.90;;;;;;;;;;5075767;28;20049;-80
2023/09/06 09:18:36;;;;;;;1999.90;999.90;;;;;;;;;;5080487;28;20048;-81
2023/09/06 09:21:03;;;;;;;1999.90;999.90;;;;;;;;;;5076061;28;20507;-80
2023/09/06 09:23:29;;;;;;;1999.90;999.90;;;;;;;;;;5083850;28;20105;-81
2023/09/06 09:25:57;;;;;;;1999.90;999.90;;;;;;;;;;5083593;28;20051;-81
2023/09/06 09:28:24;;;;;;;1999.90;999.90;;;;;;;;;;5076451;28;20059;-81
2023/09/06 09:30:52;;;;;;;1999.90;999.90;;;;;;;;;;5082300;28;20040;-81
2023/09/06 09:33:19;;;;;;;1999.90;999.90;;;;;;;;;;5085252;28;20050;-82
2023/09/06 09:35:48;;;;;;;1999.90;999.90;;;;;;;;;;5083800;28;20044;-82
2023/09/06 09:38:15;;;;;;;1999.90;999.90;;;;;;;;;;5082767;28;20040;-82
2023/09/06 09:40:41;;;;;;;1999.90;999.90;;;;;;;;;;5078677;28;20047;-81
2023/09/06 09:43:09;;;;;;;1999.90;999.90;;;;;;;;;;5084164;28;20523;-81
2023/09/06 09:45:43;;;;;;;1999.90;999.90;;;;;;;;;;5085126;28;20052;-82
2023/09/06 09:48:10;;;;;;;1999.90;999.90;;;;;;;;;;5083171;28;20054;-81
2023/09/06 09:50:38;;;;;;;1999.90;999.90;;;;;;;;;;5083807;28;20048;-81
2023/09/06 09:53:08;;;;;;;1999.90;999.90;;;;;;;;;;5088119;28;20151;-80
2023/09/06 09:55:40;;;;;;;1999.90;999.90;;;;;;;;;;5078029;28;20044;-80
2023/09/06 09:58:11;;;;;;;1999.90;999.90;;;;;;;;;;5076458;28;20045;-82
2023/09/06 10:00:41;;;;;;;1999.90;999.90;;;;;;;;;;5085307;28;20048;-82
2023/09/06 10:03:08;;;;;;;1999.90;999.90;;;;;;;;;;5087527;28;20055;-81
2023/09/06 10:05:35;;;;;;;1999.90;999.90;;;;;;;;;;5089479;28;20089;-80
2023/09/06 10:08:01;;;;;;;1999.90;999.90;;;;;;;;;;5087364;28;20052;-81
2023/09/06 10:10:28;;;;;;;1999.90;999.90;;;;;;;;;;5085093;28;20500;-80
2023/09/06 10:12:55;;;;;;;1999.90;999.90;;;;;;;;;;5089380;28;20047;-80
2023/09/06 10:15:24;;;;;;;1999.90;999.90;;;;;;;;;;5094691;28;20052;-82
2023/09/06 10:17:51;;;;;;;1999.90;999.90;;;;;;;;;;5088022;28;20057;-81
2023/09/06 10:20:23;;;;;;;1999.90;999.90;;;;;;;;;;5084621;28;20049;-81
2023/09/06 10:22:52;;;;;;;1999.90;999.90;;;;;;;;;;5096178;28;20139;-82
2023/09/06 10:25:19;;;;;;;1999.90;999.90;;;;;;;;;;5096224;28;20047;-81
2023/09/06 10:27:46;;;;;;;1999.90;999.90;;;;;;;;;;5083853;28;20480;-81
2023/09/06 10:30:17;;;;;;;1999.90;999.90;;;;;;;;;;5087631;28;20093;-81
2023/09/06 10:32:45;;;;;;;1999.90;999.90;;;;;;;;;;5084251;28;20120;-81
2023/09/06 10:35:26;;;;;;;1999.90;999.90;;;;;;;;;;5086055;28;20508;-83
2023/09/06 10:38:06;;;;;;;1999.90;999.90;;;;;;;;;;5083279;28;20048;-81
2023/09/06 10:41:05;;;;;;;1999.90;999.90;;;;;;;;;;5094717;28;20485;-81
2023/09/06 10:43:44;;;;;;;1999.90;999.90;;;;;;;;;;5088278;28;20056;-81
2023/09/06 10:46:28;;;;;;;1999.90;999.90;;;;;;;;;;5083319;28;20048;-82
2023/09/06 10:49:19;;;;;;;1999.90;999.90;;;;;;;;;;5088013;28;20048;-83
2023/09/06 10:52:04;;;;;;;1999.90;999.90;;;;;;;;;;5088732;28;20049;-82
2023/09/06 10:54:35;;;;;;;1999.90;999.90;;;;;;;;;;5089657;28;20123;-82
2023/09/06 10:57:06;;;;;;;1999.90;999.90;;;;;;;;;;5087664;28;20059;-82
2023/09/06 10:59:33;;;;;;;1999.90;999.90;;;;;;;;;;5084560;28;20415;-81
2023/09/06 11:02:11;;;;;;;1999.90;999.90;;;;;;;;;;5087433;28;20389;-81
2023/09/06 11:04:39;;;;;;;1999.90;999.90;;;;;;;;;;5078216;28;20048;-82
2023/09/06 11:07:10;;;;;;;1999.90;999.90;;;;;;;;;;5088703;28;20090;-81
2023/09/06 11:09:43;;;;;;;1999.90;999.90;;;;;;;;;;5084827;28;20041;-82
2023/09/06 11:12:11;;;;;;;1999.90;999.90;;;;;;;;;;5090757;28;20036;-82
2023/09/06 11:14:38;;;;;;;1999.90;999.90;;;;;;;;;;5085186;28;20052;-82
2023/09/06 11:17:04;;;;;;;1999.90;999.90;;;;;;;;;;5079179;28;20040;-83
2023/09/06 11:19:31;;;;;;;1999.90;999.90;;;;;;;;;;5083514;28;20046;-82
2023/09/06 11:22:06;;;;;;;1999.90;999.90;;;;;;;;;;5083936;28;20791;-82
2023/09/06 11:24:33;;;;;;;1999.90;999.90;;;;;;;;;;5084018;28;20048;-82
2023/09/06 11:27:03;;;;;;;1999.90;999.90;;;;;;;;;;5084215;28;20049;-84
2023/09/06 11:29:30;;;;;;;1999.90;999.90;;;;;;;;;;5083387;28;20098;-82
2023/09/06 11:32:08;;;;;;;1999.90;999.90;;;;;;;;;;5083429;28;20382;-83
2023/09/06 11:34:42;;;;;;;1999.90;999.90;;;;;;;;;;5081688;28;20040;-82
2023/09/06 11:37:12;;;;;;;1999.90;999.90;;;;;;;;;;5081210;28;20043;-82
2023/09/06 11:39:40;;;;;;;1999.90;999.90;;;;;;;;;;5082041;28;20047;-83
2023/09/06 11:42:08;;;;;;;1999.90;999.90;;;;;;;;;;5077049;28;20410;-81
2023/09/06 11:44:39;;;;;;;1999.90;999.90;;;;;;;;;;5076381;28;20076;-82
2023/09/06 11:47:06;;;;;;;1999.90;999.90;;;;;;;;;;5082729;28;20481;-85
2023/09/06 11:49:34;;;;;;;1999.90;999.90;;;;;;;;;;5080016;28;20041;-83
2023/09/06 11:52:04;;;;;;;1999.90;999.90;;;;;;;;;;5086529;28;20055;-82
2023/09/06 11:54:32;;;;;;;1999.90;999.90;;;;;;;;;;5079195;28;20094;-86
2023/09/06 11:56:59;;;;;;;1999.90;999.90;;;;;;;;;;5085477;28;20154;-84
2023/09/06 11:59:29;;;;;;;1999.90;999.90;;;;;;;;;;5082440;28;20048;-81
2023/09/06 12:01:59;;;;;;;1999.90;999.90;;;;;;;;;;5077700;28;20530;-81
2023/09/06 12:04:28;;;;;;;1999.90;999.90;;;;;;;;;;5086953;28;20051;-82
2023/09/06 12:06:56;;;;;;;1999.90;999.90;;;;;;;;;;5082475;28;20051;-81
2023/09/06 12:09:23;;;;;;;1999.90;999.90;;;;;;;;;;5085634;28;20495;-83
2023/09/06 12:11:51;;;;;;;1999.90;999.90;;;;;;;;;;5081431;28;20488;-81
2023/09/06 12:14:18;;;;;;;1999.90;999.90;;;;;;;;;;5077413;28;20048;-82
2023/09/06 12:16:45;;;;;;;1999.90;999.90;;;;;;;;;;5079600;28;20066;-82
2023/09/06 12:19:12;;;;;;;1999.90;999.90;;;;;;;;;;5087125;28;20048;-81
2023/09/06 12:21:39;;;;;;;1999.90;999.90;;;;;;;;;;5079120;28;20139;-82
2023/09/06 12:24:06;;;;;;;1999.90;999.90;;;;;;;;;;5085604;28;20048;-82
2023/09/06 12:26:33;;;;;;;1999.90;999.90;;;;;;;;;;5080342;28;20051;-81
2023/09/06 12:29:01;;;;;;;1999.90;999.90;;;;;;;;;;5082860;28;20121;-81
2023/09/06 12:31:27;;;;;;;1999.90;999.90;;;;;;;;;;5077856;28;20508;-81
2023/09/06 12:33:54;;;;;;;1999.90;999.90;;;;;;;;;;5084854;28;20831;-81
2023/09/06 12:36:20;;;;;;;1999.90;999.90;;;;;;;;;;5081684;28;20063;-82
2023/09/06 12:38:47;;;;;;;1999.90;999.90;;;;;;;;;;5083347;28;20127;-82
2023/09/06 12:41:14;;;;;;;1999.90;999.90;;;;;;;;;;5079625;28;20044;-80
2023/09/06 12:43:40;;;;;;;1999.90;999.90;;;;;;;;;;5083785;28;20062;-82
2023/09/06 12:46:08;;;;;;;1999.90;999.90;;;;;;;;;;5078371;28;20052;-83
2023/09/06 12:48:35;;;;;;;1999.90;999.90;;;;;;;;;;5087963;28;20070;-81
2023/09/06 12:51:06;;;;;;;1999.90;999.90;;;;;;;;;;5079602;28;20052;-85
2023/09/06 12:53:33;;;;;;;1999.90;999.90;;;;;;;;;;5080207;28;20132;-82
2023/09/06 12:55:59;;;;;;;1999.90;999.90;;;;;;;;;;5082754;28;20455;-81
2023/09/06 12:58:26;;;;;;;1999.90;999.90;;;;;;;;;;5079853;28;20048;-81
2023/09/06 13:00:54;;;;;;;1999.90;999.90;;;;;;;;;;5078440;28;20155;-82
2023/09/06 13:03:22;;;;;;;1999.90;999.90;;;;;;;;;;5078646;28;20044;-81
2023/09/06 13:05:49;;;;;;;1999.90;999.90;;;;;;;;;;5084385;28;20055;-81
2023/09/06 13:08:16;;;;;;;1999.90;999.90;;;;;;;;;;5082613;28;20040;-81
2023/09/06 13:10:42;;;;;;;1999.90;999.90;;;;;;;;;;5081839;28;20048;-82
2023/09/06 13:13:09;;;;;;;1999.90;999.90;;;;;;;;;;5078826;28;20485;-82
2023/09/06 13:15:35;;;;;;;1999.90;999.90;;;;;;;;;;5082273;28;20044;-82
2023/09/06 13:18:02;;;;;;;1999.90;999.90;;;;;;;;;;5076248;28;20054;-80
2023/09/06 13:20:30;;;;;;;1999.90;999.90;;;;;;;;;;5078885;28;20498;-82
2023/09/06 13:22:57;;;;;;;1999.90;999.90;;;;;;;;;;5081688;28;20139;-83
2023/09/06 13:25:23;;;;;;;1999.90;999.90;;;;;;;;;;5075100;28;20047;-82
2023/09/06 13:27:50;;;;;;;1999.90;999.90;;;;;;;;;;5083077;28;20066;-84
2023/09/06 13:30:17;;;;;;;1999.90;999.90;;;;;;;;;;5084961;28;20048;-82
2023/09/06 13:32:43;;;;;;;1999.90;999.90;;;;;;;;;;5076973;28;20051;-83
2023/09/06 13:35:11;;;;;;;1999.90;999.90;;;;;;;;;;5086421;28;20139;-82
2023/09/06 13:37:39;;;;;;;1999.90;999.90;;;;;;;;;;5080808;28;20056;-81
2023/09/06 13:40:08;;;;;;;1999.90;999.90;;;;;;;;;;5084179;28;20040;-81
2023/09/06 13:42:34;;;;;;;1999.90;999.90;;;;;;;;;;5088498;28;20048;-83
2023/09/06 13:45:01;;;;;;;1999.90;999.90;;;;;;;;;;5085852;28;20051;-82
2023/09/06 13:47:27;;;;;;;1999.90;999.90;;;;;;;;;;5086798;28;20051;-82